This is the latest recevied weather packets stored in our database for station/object KFVE. If no packets are shown the sender has not sent any weather packets the latest 10 day(s).
| Time | Temp. | Humidity | Pressure | Rain* | Wind** | Luminosity | Snow |
|---|---|---|---|---|---|---|---|
| 1777758811 | 8.89° C | 45% | 1010.2 hPa | - | - | - | - |
| 1777757613 | 8.89° C | 45% | 1010.2 hPa | - | - | - | - |
| 1777757013 | 8.89° C | 45% | 1010.2 hPa | - | - | - | - |
| 1777756416 | 8.89° C | 45% | 1010.2 hPa | - | - | - | - |
| 1777752816 | 8.89° C | 42% | 1010.2 hPa | - | - | - | - |
| 1777743213 | 10° C | 43% | 1010.5 hPa | - | - | - | - |
| 1777737816 | 7.78° C | 49% | 1011.2 hPa | - | - | - | - |
| 1777737339 | 6.67° C | 52% | 1011.5 hPa | - | - | - | - |
| 1777736016 | 6.67° C | 52% | 1011.5 hPa | - | - | - | - |
| 1777735411 | 6.67° C | 52% | 1011.5 hPa | - | - | - | - |
| 1777734813 | 6.67° C | 52% | 1011.5 hPa | - | - | - | - |
| 1777733613 | 5.56° C | 56% | 1011.5 hPa | - | - | - | - |
| 1777732415 | 5.56° C | 56% | 1011.5 hPa | - | - | - | - |
| 1777731812 | 5.56° C | 56% | 1011.5 hPa | - | - | - | - |
| 1777731212 | 5.56° C | 56% | 1011.5 hPa | - | - | - | - |
| 1777730615 | 5.56° C | 56% | 1011.5 hPa | - | - | - | - |
| 1777730015 | 5.56° C | 60% | 1011.5 hPa | - | - | - | - |
| 1777728816 | 3.89° C | 69% | 1011.5 hPa | - | - | - | - |
| 1777728215 | 3.89° C | 69% | 1011.5 hPa | - | - | - | - |
| 1777727614 | 5° C | 65% | 1011.5 hPa | - | - | - | - |
| 1777724012 | 2.78° C | 74% | 1011.5 hPa | - | - | - | - |
| 1777723415 | 2.78° C | 74% | 1011.5 hPa | - | - | - | - |
| 1777722813 | 1.67° C | 74% | 1010.8 hPa | - | - | - | - |
| 1777722214 | 1.67° C | 74% | 1010.8 hPa | - | - | - | - |
| 1777721616 | 1.67° C | 74% | 1010.8 hPa | - | - | - | - |
* Rain since midnight (hover to see other rain measurements)
** Current wind speed in m/s (hover to see current wind gust speed)